sensor_id;sensor_type;location;lat;lon;timestamp;P1;durP1;ratioP1;P2;durP2;ratioP2
50543;SDS011;41176;44.032;20.900;2022-09-12T00:00:41;1.65;;;0.50;;
50543;SDS011;41176;44.032;20.900;2022-09-12T00:03:07;0.95;;;0.43;;
50543;SDS011;41176;44.032;20.900;2022-09-12T00:05:41;0.47;;;0.22;;
50543;SDS011;41176;44.032;20.900;2022-09-12T00:08:08;0.90;;;0.60;;
50543;SDS011;41176;44.032;20.900;2022-09-12T00:10:41;1.00;;;0.60;;
50543;SDS011;41176;44.032;20.900;2022-09-12T00:13:08;1.55;;;0.55;;
50543;SDS011;41176;44.032;20.900;2022-09-12T00:15:40;1.40;;;0.60;;
50543;SDS011;41176;44.032;20.900;2022-09-12T00:18:08;0.95;;;0.63;;
50543;SDS011;41176;44.032;20.900;2022-09-12T00:20:45;1.35;;;0.88;;
50543;SDS011;41176;44.032;20.900;2022-09-12T00:23:11;1.90;;;0.73;;
50543;SDS011;41176;44.032;20.900;2022-09-12T00:25:41;1.08;;;0.50;;
50543;SDS011;41176;44.032;20.900;2022-09-12T00:28:09;1.20;;;0.63;;
50543;SDS011;41176;44.032;20.900;2022-09-12T00:30:38;1.13;;;0.50;;
50543;SDS011;41176;44.032;20.900;2022-09-12T00:33:08;1.40;;;0.70;;
50543;SDS011;41176;44.032;20.900;2022-09-12T00:35:48;1.52;;;1.00;;
50543;SDS011;41176;44.032;20.900;2022-09-12T00:38:17;2.30;;;1.13;;
50543;SDS011;41176;44.032;20.900;2022-09-12T00:40:43;1.58;;;0.90;;
50543;SDS011;41176;44.032;20.900;2022-09-12T00:45:55;1.95;;;0.60;;
50543;SDS011;41176;44.032;20.900;2022-09-12T00:48:23;1.55;;;0.77;;
50543;SDS011;41176;44.032;20.900;2022-09-12T00:50:56;1.38;;;0.63;;
50543;SDS011;41176;44.032;20.900;2022-09-12T00:53:22;2.13;;;1.02;;
50543;SDS011;41176;44.032;20.900;2022-09-12T00:55:48;2.00;;;0.90;;
50543;SDS011;41176;44.032;20.900;2022-09-12T00:58:35;1.75;;;1.05;;
50543;SDS011;41176;44.032;20.900;2022-09-12T01:01:09;1.13;;;0.80;;
50543;SDS011;41176;44.032;20.900;2022-09-12T01:03:38;1.42;;;0.85;;
50543;SDS011;41176;44.032;20.900;2022-09-12T01:06:06;1.77;;;0.90;;
50543;SDS011;41176;44.032;20.900;2022-09-12T01:08:45;1.58;;;0.73;;
50543;SDS011;41176;44.032;20.900;2022-09-12T01:11:15;1.10;;;0.60;;
50543;SDS011;41176;44.032;20.900;2022-09-12T01:13:43;2.60;;;0.80;;
50543;SDS011;41176;44.032;20.900;2022-09-12T01:16:13;2.05;;;0.90;;
50543;SDS011;41176;44.032;20.900;2022-09-12T01:21:22;1.60;;;0.70;;
50543;SDS011;41176;44.032;20.900;2022-09-12T01:26:51;2.97;;;0.88;;
50543;SDS011;41176;44.032;20.900;2022-09-12T01:29:49;2.15;;;1.15;;
50543;SDS011;41176;44.032;20.900;2022-09-12T01:45:43;1.65;;;0.65;;
50543;SDS011;41176;44.032;20.900;2022-09-12T01:48:18;1.30;;;0.80;;
50543;SDS011;41176;44.032;20.900;2022-09-12T01:50:58;1.33;;;0.65;;
50543;SDS011;41176;44.032;20.900;2022-09-12T01:53:27;0.85;;;0.50;;
50543;SDS011;41176;44.032;20.900;2022-09-12T01:56:12;0.95;;;0.45;;
50543;SDS011;41176;44.032;20.900;2022-09-12T01:58:50;1.42;;;0.50;;
50543;SDS011;41176;44.032;20.900;2022-09-12T02:01:43;1.20;;;0.32;;
50543;SDS011;41176;44.032;20.900;2022-09-12T02:07:20;1.33;;;0.50;;
50543;SDS011;41176;44.032;20.900;2022-09-12T02:10:28;0.80;;;0.45;;
50543;SDS011;41176;44.032;20.900;2022-09-12T02:12:33;0.52;;;0.30;;
50543;SDS011;41176;44.032;20.900;2022-09-12T02:15:14;1.52;;;0.50;;
50543;SDS011;41176;44.032;20.900;2022-09-12T02:17:43;0.80;;;0.43;;
50543;SDS011;41176;44.032;20.900;2022-09-12T02:20:32;0.55;;;0.30;;
50543;SDS011;41176;44.032;20.900;2022-09-12T02:23:00;0.70;;;0.40;;
50543;SDS011;41176;44.032;20.900;2022-09-12T02:25:28;0.82;;;0.40;;
50543;SDS011;41176;44.032;20.900;2022-09-12T02:27:59;0.80;;;0.30;;
50543;SDS011;41176;44.032;20.900;2022-09-12T02:30:30;1.10;;;0.60;;
50543;SDS011;41176;44.032;20.900;2022-09-12T02:33:06;1.33;;;0.55;;
50543;SDS011;41176;44.032;20.900;2022-09-12T02:36:10;0.75;;;0.20;;
50543;SDS011;41176;44.032;20.900;2022-09-12T02:38:57;0.43;;;0.25;;
50543;SDS011;41176;44.032;20.900;2022-09-12T02:41:38;0.73;;;0.40;;
50543;SDS011;41176;44.032;20.900;2022-09-12T02:44:14;0.85;;;0.38;;
50543;SDS011;41176;44.032;20.900;2022-09-12T02:49:10;0.60;;;0.30;;
50543;SDS011;41176;44.032;20.900;2022-09-12T02:51:39;0.77;;;0.40;;
50543;SDS011;41176;44.032;20.900;2022-09-12T02:54:12;1.10;;;0.50;;
50543;SDS011;41176;44.032;20.900;2022-09-12T02:56:42;0.98;;;0.40;;
50543;SDS011;41176;44.032;20.900;2022-09-12T02:59:09;1.02;;;0.40;;
50543;SDS011;41176;44.032;20.900;2022-09-12T03:02:08;0.85;;;0.43;;
50543;SDS011;41176;44.032;20.900;2022-09-12T03:26:11;1.00;;;0.40;;
50543;SDS011;41176;44.032;20.900;2022-09-12T03:28:44;0.85;;;0.50;;
50543;SDS011;41176;44.032;20.900;2022-09-12T03:31:13;1.38;;;0.30;;
50543;SDS011;41176;44.032;20.900;2022-09-12T03:33:45;0.77;;;0.57;;
50543;SDS011;41176;44.032;20.900;2022-09-12T03:36:15;0.80;;;0.40;;
50543;SDS011;41176;44.032;20.900;2022-09-12T03:38:45;1.02;;;0.30;;
50543;SDS011;41176;44.032;20.900;2022-09-12T03:41:10;1.25;;;0.50;;
50543;SDS011;41176;44.032;20.900;2022-09-12T03:43:36;0.98;;;0.57;;
50543;SDS011;41176;44.032;20.900;2022-09-12T03:46:02;0.95;;;0.50;;
50543;SDS011;41176;44.032;20.900;2022-09-12T03:48:28;0.57;;;0.28;;
50543;SDS011;41176;44.032;20.900;2022-09-12T03:50:58;0.68;;;0.40;;
50543;SDS011;41176;44.032;20.900;2022-09-12T03:53:28;0.73;;;0.25;;
50543;SDS011;41176;44.032;20.900;2022-09-12T03:55:54;1.15;;;0.50;;
50543;SDS011;41176;44.032;20.900;2022-09-12T03:58:21;0.80;;;0.40;;
50543;SDS011;41176;44.032;20.900;2022-09-12T04:00:47;1.17;;;0.45;;
50543;SDS011;41176;44.032;20.900;2022-09-12T04:03:12;0.50;;;0.28;;
50543;SDS011;41176;44.032;20.900;2022-09-12T04:05:40;1.42;;;0.50;;
50543;SDS011;41176;44.032;20.900;2022-09-12T04:08:10;0.55;;;0.30;;
50543;SDS011;41176;44.032;20.900;2022-09-12T04:10:35;1.05;;;0.47;;
50543;SDS011;41176;44.032;20.900;2022-09-12T04:13:01;0.93;;;0.30;;
50543;SDS011;41176;44.032;20.900;2022-09-12T04:15:27;1.42;;;0.50;;
50543;SDS011;41176;44.032;20.900;2022-09-12T04:17:53;0.98;;;0.47;;
50543;SDS011;41176;44.032;20.900;2022-09-12T04:20:19;0.98;;;0.40;;
50543;SDS011;41176;44.032;20.900;2022-09-12T04:22:44;0.43;;;0.20;;
50543;SDS011;41176;44.032;20.900;2022-09-12T04:25:10;0.88;;;0.40;;
50543;SDS011;41176;44.032;20.900;2022-09-12T04:27:37;0.52;;;0.25;;
50543;SDS011;41176;44.032;20.900;2022-09-12T04:30:03;0.65;;;0.40;;
50543;SDS011;41176;44.032;20.900;2022-09-12T04:32:30;1.00;;;0.43;;
50543;SDS011;41176;44.032;20.900;2022-09-12T04:34:56;0.70;;;0.50;;
50543;SDS011;41176;44.032;20.900;2022-09-12T04:37:22;0.85;;;0.40;;
50543;SDS011;41176;44.032;20.900;2022-09-12T04:39:48;0.75;;;0.38;;
50543;SDS011;41176;44.032;20.900;2022-09-12T04:42:15;0.80;;;0.32;;
50543;SDS011;41176;44.032;20.900;2022-09-12T04:44:41;0.70;;;0.32;;
50543;SDS011;41176;44.032;20.900;2022-09-12T04:47:07;1.00;;;0.60;;
50543;SDS011;41176;44.032;20.900;2022-09-12T04:49:33;0.80;;;0.47;;
50543;SDS011;41176;44.032;20.900;2022-09-12T04:51:59;0.75;;;0.40;;
50543;SDS011;41176;44.032;20.900;2022-09-12T04:54:25;0.93;;;0.35;;
50543;SDS011;41176;44.032;20.900;2022-09-12T04:56:51;0.85;;;0.50;;
50543;SDS011;41176;44.032;20.900;2022-09-12T04:59:19;1.20;;;0.50;;
50543;SDS011;41176;44.032;20.900;2022-09-12T05:01:46;1.08;;;0.60;;
50543;SDS011;41176;44.032;20.900;2022-09-12T05:04:12;1.05;;;0.50;;
50543;SDS011;41176;44.032;20.900;2022-09-12T05:06:39;0.60;;;0.28;;
50543;SDS011;41176;44.032;20.900;2022-09-12T05:09:06;1.42;;;0.47;;
50543;SDS011;41176;44.032;20.900;2022-09-12T05:11:36;1.20;;;0.70;;
50543;SDS011;41176;44.032;20.900;2022-09-12T05:14:03;3.22;;;0.60;;
50543;SDS011;41176;44.032;20.900;2022-09-12T05:16:29;0.63;;;0.38;;
50543;SDS011;41176;44.032;20.900;2022-09-12T05:18:57;0.65;;;0.30;;
50543;SDS011;41176;44.032;20.900;2022-09-12T05:21:23;1.52;;;0.73;;
50543;SDS011;41176;44.032;20.900;2022-09-12T05:23:53;0.55;;;0.40;;
50543;SDS011;41176;44.032;20.900;2022-09-12T05:26:20;0.70;;;0.32;;
50543;SDS011;41176;44.032;20.900;2022-09-12T05:28:47;0.68;;;0.32;;
50543;SDS011;41176;44.032;20.900;2022-09-12T05:31:15;0.50;;;0.28;;
50543;SDS011;41176;44.032;20.900;2022-09-12T05:33:49;0.35;;;0.15;;
50543;SDS011;41176;44.032;20.900;2022-09-12T05:36:17;0.60;;;0.40;;
50543;SDS011;41176;44.032;20.900;2022-09-12T05:38:45;1.02;;;0.40;;
50543;SDS011;41176;44.032;20.900;2022-09-12T05:41:20;0.65;;;0.30;;
50543;SDS011;41176;44.032;20.900;2022-09-12T05:43:51;0.65;;;0.30;;
50543;SDS011;41176;44.032;20.900;2022-09-12T05:46:19;0.40;;;0.20;;
50543;SDS011;41176;44.032;20.900;2022-09-12T05:48:47;1.00;;;0.50;;
50543;SDS011;41176;44.032;20.900;2022-09-12T05:51:18;0.90;;;0.50;;
50543;SDS011;41176;44.032;20.900;2022-09-12T05:53:46;1.00;;;0.40;;
50543;SDS011;41176;44.032;20.900;2022-09-12T05:56:21;0.85;;;0.30;;
50543;SDS011;41176;44.032;20.900;2022-09-12T05:58:54;1.30;;;0.32;;
50543;SDS011;41176;44.032;20.900;2022-09-12T06:01:24;0.85;;;0.47;;
50543;SDS011;41176;44.032;20.900;2022-09-12T06:03:52;1.13;;;0.50;;
50543;SDS011;41176;44.032;20.900;2022-09-12T06:06:20;0.65;;;0.30;;
50543;SDS011;41176;44.032;20.900;2022-09-12T06:08:49;0.85;;;0.40;;
50543;SDS011;41176;44.032;20.900;2022-09-12T06:11:18;1.25;;;0.40;;
50543;SDS011;41176;44.032;20.900;2022-09-12T06:13:46;0.85;;;0.45;;
50543;SDS011;41176;44.032;20.900;2022-09-12T06:16:19;0.95;;;0.40;;
50543;SDS011;41176;44.032;20.900;2022-09-12T06:19:00;0.85;;;0.40;;
50543;SDS011;41176;44.032;20.900;2022-09-12T06:21:27;0.60;;;0.30;;
50543;SDS011;41176;44.032;20.900;2022-09-12T06:23:55;0.85;;;0.50;;
50543;SDS011;41176;44.032;20.900;2022-09-12T06:26:23;1.10;;;0.40;;
50543;SDS011;41176;44.032;20.900;2022-09-12T06:28:50;0.75;;;0.30;;
50543;SDS011;41176;44.032;20.900;2022-09-12T06:31:18;1.10;;;0.40;;
50543;SDS011;41176;44.032;20.900;2022-09-12T06:33:47;1.15;;;0.30;;
50543;SDS011;41176;44.032;20.900;2022-09-12T06:36:18;1.10;;;0.57;;
50543;SDS011;41176;44.032;20.900;2022-09-12T06:38:46;0.75;;;0.40;;
50543;SDS011;41176;44.032;20.900;2022-09-12T06:41:17;0.98;;;0.40;;
50543;SDS011;41176;44.032;20.900;2022-09-12T06:43:44;0.60;;;0.30;;
50543;SDS011;41176;44.032;20.900;2022-09-12T06:46:10;0.90;;;0.30;;
50543;SDS011;41176;44.032;20.900;2022-09-12T06:48:37;0.40;;;0.20;;
50543;SDS011;41176;44.032;20.900;2022-09-12T06:51:04;0.60;;;0.30;;
50543;SDS011;41176;44.032;20.900;2022-09-12T06:53:34;1.27;;;0.63;;
50543;SDS011;41176;44.032;20.900;2022-09-12T06:58:31;1.50;;;0.40;;
50543;SDS011;41176;44.032;20.900;2022-09-12T07:01:05;0.80;;;0.47;;
50543;SDS011;41176;44.032;20.900;2022-09-12T07:03:36;1.25;;;0.50;;
50543;SDS011;41176;44.032;20.900;2022-09-12T07:06:03;0.95;;;0.45;;
50543;SDS011;41176;44.032;20.900;2022-09-12T07:08:30;0.75;;;0.35;;
50543;SDS011;41176;44.032;20.900;2022-09-12T07:10:58;1.27;;;0.60;;
50543;SDS011;41176;44.032;20.900;2022-09-12T07:13:25;1.40;;;0.43;;
50543;SDS011;41176;44.032;20.900;2022-09-12T07:15:51;1.52;;;0.52;;
50543;SDS011;41176;44.032;20.900;2022-09-12T07:18:17;1.80;;;0.65;;
50543;SDS011;41176;44.032;20.900;2022-09-12T07:20:43;1.63;;;0.70;;
50543;SDS011;41176;44.032;20.900;2022-09-12T07:23:09;2.20;;;1.05;;
50543;SDS011;41176;44.032;20.900;2022-09-12T07:25:35;2.28;;;1.00;;
50543;SDS011;41176;44.032;20.900;2022-09-12T07:28:01;1.30;;;0.88;;
50543;SDS011;41176;44.032;20.900;2022-09-12T07:30:27;2.25;;;1.02;;
50543;SDS011;41176;44.032;20.900;2022-09-12T07:32:53;2.08;;;1.20;;
50543;SDS011;41176;44.032;20.900;2022-09-12T07:35:19;2.13;;;0.95;;
50543;SDS011;41176;44.032;20.900;2022-09-12T07:37:45;2.20;;;1.05;;
50543;SDS011;41176;44.032;20.900;2022-09-12T07:40:11;1.90;;;1.00;;
50543;SDS011;41176;44.032;20.900;2022-09-12T07:42:37;2.63;;;1.42;;
50543;SDS011;41176;44.032;20.900;2022-09-12T07:45:03;2.45;;;1.00;;
50543;SDS011;41176;44.032;20.900;2022-09-12T07:47:29;2.53;;;1.02;;
50543;SDS011;41176;44.032;20.900;2022-09-12T07:49:55;2.15;;;1.08;;
50543;SDS011;41176;44.032;20.900;2022-09-12T07:52:21;2.40;;;0.95;;
50543;SDS011;41176;44.032;20.900;2022-09-12T07:54:46;2.50;;;1.13;;
50543;SDS011;41176;44.032;20.900;2022-09-12T07:57:12;1.67;;;0.80;;
50543;SDS011;41176;44.032;20.900;2022-09-12T07:59:39;2.28;;;1.00;;
50543;SDS011;41176;44.032;20.900;2022-09-12T08:02:10;2.35;;;1.00;;
50543;SDS011;41176;44.032;20.900;2022-09-12T08:04:38;2.25;;;1.10;;
50543;SDS011;41176;44.032;20.900;2022-09-12T08:07:04;1.90;;;1.02;;
50543;SDS011;41176;44.032;20.900;2022-09-12T08:09:30;3.65;;;1.45;;
50543;SDS011;41176;44.032;20.900;2022-09-12T08:11:56;2.20;;;0.85;;
50543;SDS011;41176;44.032;20.900;2022-09-12T08:14:22;1.73;;;0.70;;
50543;SDS011;41176;44.032;20.900;2022-09-12T08:16:48;2.13;;;1.20;;
50543;SDS011;41176;44.032;20.900;2022-09-12T08:19:20;2.10;;;0.85;;
50543;SDS011;41176;44.032;20.900;2022-09-12T08:21:53;2.05;;;0.88;;
50543;SDS011;41176;44.032;20.900;2022-09-12T08:24:23;1.80;;;0.80;;
50543;SDS011;41176;44.032;20.900;2022-09-12T08:26:49;2.47;;;1.27;;
50543;SDS011;41176;44.032;20.900;2022-09-12T08:32:38;2.40;;;1.23;;
50543;SDS011;41176;44.032;20.900;2022-09-12T08:35:04;2.13;;;1.17;;
50543;SDS011;41176;44.032;20.900;2022-09-12T08:37:32;2.60;;;0.98;;
50543;SDS011;41176;44.032;20.900;2022-09-12T08:39:58;2.28;;;1.13;;
50543;SDS011;41176;44.032;20.900;2022-09-12T08:47:49;2.75;;;1.10;;
50543;SDS011;41176;44.032;20.900;2022-09-12T08:50:17;2.38;;;1.00;;
50543;SDS011;41176;44.032;20.900;2022-09-12T08:52:55;2.63;;;1.02;;
50543;SDS011;41176;44.032;20.900;2022-09-12T08:58:17;2.00;;;0.90;;
50543;SDS011;41176;44.032;20.900;2022-09-12T09:15:13;1.90;;;0.80;;
50543;SDS011;41176;44.032;20.900;2022-09-12T09:17:53;1.50;;;0.77;;
50543;SDS011;41176;44.032;20.900;2022-09-12T09:20:41;1.65;;;0.80;;
50543;SDS011;41176;44.032;20.900;2022-09-12T09:23:28;1.77;;;0.85;;
50543;SDS011;41176;44.032;20.900;2022-09-12T09:31:32;1.20;;;0.60;;
50543;SDS011;41176;44.032;20.900;2022-09-12T09:34:04;1.20;;;0.60;;
50543;SDS011;41176;44.032;20.900;2022-09-12T09:45:12;0.90;;;0.40;;
50543;SDS011;41176;44.032;20.900;2022-09-12T09:47:52;1.02;;;0.40;;
50543;SDS011;41176;44.032;20.900;2022-09-12T09:50:19;0.45;;;0.20;;
50543;SDS011;41176;44.032;20.900;2022-09-12T09:52:45;0.82;;;0.30;;
50543;SDS011;41176;44.032;20.900;2022-09-12T09:55:17;0.73;;;0.30;;
50543;SDS011;41176;44.032;20.900;2022-09-12T09:57:47;0.77;;;0.40;;
50543;SDS011;41176;44.032;20.900;2022-09-12T10:05:29;0.90;;;0.43;;
50543;SDS011;41176;44.032;20.900;2022-09-12T10:07:57;1.88;;;0.40;;
50543;SDS011;41176;44.032;20.900;2022-09-12T10:10:23;0.88;;;0.40;;
50543;SDS011;41176;44.032;20.900;2022-09-12T10:12:50;0.90;;;0.32;;
50543;SDS011;41176;44.032;20.900;2022-09-12T10:15:30;0.43;;;0.20;;
50543;SDS011;41176;44.032;20.900;2022-09-12T10:17:56;0.60;;;0.20;;
50543;SDS011;41176;44.032;20.900;2022-09-12T10:20:31;0.85;;;0.35;;
50543;SDS011;41176;44.032;20.900;2022-09-12T10:23:20;0.93;;;0.40;;
50543;SDS011;41176;44.032;20.900;2022-09-12T10:26:02;1.15;;;0.40;;
50543;SDS011;41176;44.032;20.900;2022-09-12T10:28:43;1.27;;;0.40;;
50543;SDS011;41176;44.032;20.900;2022-09-12T10:31:14;0.82;;;0.30;;
50543;SDS011;41176;44.032;20.900;2022-09-12T10:33:51;1.23;;;0.40;;
50543;SDS011;41176;44.032;20.900;2022-09-12T10:36:20;0.57;;;0.20;;
50543;SDS011;41176;44.032;20.900;2022-09-12T10:38:48;0.63;;;0.20;;
50543;SDS011;41176;44.032;20.900;2022-09-12T10:41:16;0.73;;;0.30;;
50543;SDS011;41176;44.032;20.900;2022-09-12T10:43:43;0.75;;;0.25;;
50543;SDS011;41176;44.032;20.900;2022-09-12T10:46:30;0.70;;;0.30;;
50543;SDS011;41176;44.032;20.900;2022-09-12T10:49:12;0.70;;;0.30;;
50543;SDS011;41176;44.032;20.900;2022-09-12T10:51:45;0.50;;;0.20;;
50543;SDS011;41176;44.032;20.900;2022-09-12T10:54:11;0.77;;;0.30;;
50543;SDS011;41176;44.032;20.900;2022-09-12T11:02:27;0.68;;;0.30;;
50543;SDS011;41176;44.032;20.900;2022-09-12T11:07:48;0.40;;;0.20;;
50543;SDS011;41176;44.032;20.900;2022-09-12T11:30:04;1.02;;;0.40;;
50543;SDS011;41176;44.032;20.900;2022-09-12T11:32:42;0.57;;;0.30;;
50543;SDS011;41176;44.032;20.900;2022-09-12T11:35:30;0.57;;;0.27;;
50543;SDS011;41176;44.032;20.900;2022-09-12T11:40:55;0.57;;;0.30;;
50543;SDS011;41176;44.032;20.900;2022-09-12T11:46:22;0.90;;;0.30;;
50543;SDS011;41176;44.032;20.900;2022-09-12T11:48:59;0.93;;;0.30;;
50543;SDS011;41176;44.032;20.900;2022-09-12T11:59:57;0.60;;;0.30;;
50543;SDS011;41176;44.032;20.900;2022-09-12T12:02:30;0.57;;;0.20;;
50543;SDS011;41176;44.032;20.900;2022-09-12T12:05:12;1.33;;;0.50;;
50543;SDS011;41176;44.032;20.900;2022-09-12T12:13:02;3.28;;;0.50;;
50543;SDS011;41176;44.032;20.900;2022-09-12T12:15:52;1.85;;;0.55;;
50543;SDS011;41176;44.032;20.900;2022-09-12T12:18:25;1.02;;;0.40;;
50543;SDS011;41176;44.032;20.900;2022-09-12T12:20:56;1.40;;;0.50;;
50543;SDS011;41176;44.032;20.900;2022-09-12T12:29:10;0.88;;;0.30;;
50543;SDS011;41176;44.032;20.900;2022-09-12T12:34:29;0.88;;;0.40;;
50543;SDS011;41176;44.032;20.900;2022-09-12T12:36:56;0.98;;;0.40;;
50543;SDS011;41176;44.032;20.900;2022-09-12T12:42:01;2.03;;;0.50;;
50543;SDS011;41176;44.032;20.900;2022-09-12T12:47:22;1.45;;;0.63;;
50543;SDS011;41176;44.032;20.900;2022-09-12T12:49:52;1.25;;;0.47;;
50543;SDS011;41176;44.032;20.900;2022-09-12T12:52:24;1.15;;;0.43;;
50543;SDS011;41176;44.032;20.900;2022-09-12T12:54:55;0.80;;;0.30;;
50543;SDS011;41176;44.032;20.900;2022-09-12T12:59:53;1.10;;;0.50;;
50543;SDS011;41176;44.032;20.900;2022-09-12T13:02:35;1.38;;;0.55;;
50543;SDS011;41176;44.032;20.900;2022-09-12T13:05:12;1.13;;;0.47;;
50543;SDS011;41176;44.032;20.900;2022-09-12T13:07:42;2.03;;;0.60;;
50543;SDS011;41176;44.032;20.900;2022-09-12T13:10:18;0.90;;;0.40;;
50543;SDS011;41176;44.032;20.900;2022-09-12T13:12:47;1.73;;;0.50;;
50543;SDS011;41176;44.032;20.900;2022-09-12T13:15:28;0.88;;;0.32;;
50543;SDS011;41176;44.032;20.900;2022-09-12T13:18:13;1.08;;;0.30;;
50543;SDS011;41176;44.032;20.900;2022-09-12T13:23:39;0.80;;;0.30;;
50543;SDS011;41176;44.032;20.900;2022-09-12T13:26:13;1.65;;;0.60;;
50543;SDS011;41176;44.032;20.900;2022-09-12T13:28:47;0.88;;;0.43;;
50543;SDS011;41176;44.032;20.900;2022-09-12T13:33:51;1.05;;;0.40;;
50543;SDS011;41176;44.032;20.900;2022-09-12T13:39:34;1.13;;;0.40;;
50543;SDS011;41176;44.032;20.900;2022-09-12T13:44:43;1.13;;;0.60;;
50543;SDS011;41176;44.032;20.900;2022-09-12T13:47:13;1.70;;;0.70;;
50543;SDS011;41176;44.032;20.900;2022-09-12T13:49:44;1.00;;;0.40;;
50543;SDS011;41176;44.032;20.900;2022-09-12T13:52:30;0.63;;;0.30;;
50543;SDS011;41176;44.032;20.900;2022-09-12T13:54:58;1.02;;;0.50;;
50543;SDS011;41176;44.032;20.900;2022-09-12T13:57:30;0.93;;;0.50;;
50543;SDS011;41176;44.032;20.900;2022-09-12T14:00:06;1.65;;;0.52;;
50543;SDS011;41176;44.032;20.900;2022-09-12T14:02:44;1.15;;;0.38;;
50543;SDS011;41176;44.032;20.900;2022-09-12T14:05:22;1.23;;;0.60;;
50543;SDS011;41176;44.032;20.900;2022-09-12T14:10:32;1.00;;;0.47;;
50543;SDS011;41176;44.032;20.900;2022-09-12T14:13:03;0.75;;;0.30;;
50543;SDS011;41176;44.032;20.900;2022-09-12T14:15:40;0.65;;;0.32;;
50543;SDS011;41176;44.032;20.900;2022-09-12T14:18:19;1.10;;;0.40;;
50543;SDS011;41176;44.032;20.900;2022-09-12T14:20:51;0.60;;;0.30;;
50543;SDS011;41176;44.032;20.900;2022-09-12T14:23:27;1.23;;;0.50;;
50543;SDS011;41176;44.032;20.900;2022-09-12T14:28:20;0.75;;;0.32;;
50543;SDS011;41176;44.032;20.900;2022-09-12T14:31:06;0.98;;;0.43;;
50543;SDS011;41176;44.032;20.900;2022-09-12T14:33:47;1.02;;;0.45;;
50543;SDS011;41176;44.032;20.900;2022-09-12T14:38:49;1.10;;;0.45;;
50543;SDS011;41176;44.032;20.900;2022-09-12T14:41:42;1.23;;;0.40;;
50543;SDS011;41176;44.032;20.900;2022-09-12T14:44:08;0.80;;;0.30;;
50543;SDS011;41176;44.032;20.900;2022-09-12T14:46:40;2.25;;;0.40;;
50543;SDS011;41176;44.032;20.900;2022-09-12T14:51:57;0.80;;;0.40;;
50543;SDS011;41176;44.032;20.900;2022-09-12T14:56:58;1.42;;;0.70;;
50543;SDS011;41176;44.032;20.900;2022-09-12T14:59:34;1.30;;;0.50;;
50543;SDS011;41176;44.032;20.900;2022-09-12T15:04:47;1.25;;;0.55;;
50543;SDS011;41176;44.032;20.900;2022-09-12T15:07:40;1.20;;;0.55;;
50543;SDS011;41176;44.032;20.900;2022-09-12T15:10:19;1.73;;;0.70;;
50543;SDS011;41176;44.032;20.900;2022-09-12T15:12:49;1.20;;;0.65;;
50543;SDS011;41176;44.032;20.900;2022-09-12T15:15:39;1.00;;;0.45;;
50543;SDS011;41176;44.032;20.900;2022-09-12T15:18:09;1.23;;;0.40;;
50543;SDS011;41176;44.032;20.900;2022-09-12T15:20:36;0.70;;;0.30;;
50543;SDS011;41176;44.032;20.900;2022-09-12T15:23:03;1.30;;;0.50;;
50543;SDS011;41176;44.032;20.900;2022-09-12T15:25:38;0.73;;;0.43;;
50543;SDS011;41176;44.032;20.900;2022-09-12T15:28:08;0.88;;;0.40;;
50543;SDS011;41176;44.032;20.900;2022-09-12T15:30:45;1.02;;;0.50;;
50543;SDS011;41176;44.032;20.900;2022-09-12T15:33:16;0.98;;;0.40;;
50543;SDS011;41176;44.032;20.900;2022-09-12T15:35:44;1.15;;;0.30;;
50543;SDS011;41176;44.032;20.900;2022-09-12T15:38:10;1.17;;;0.50;;
50543;SDS011;41176;44.032;20.900;2022-09-12T15:40:37;0.80;;;0.40;;
50543;SDS011;41176;44.032;20.900;2022-09-12T15:43:03;1.65;;;0.60;;
50543;SDS011;41176;44.032;20.900;2022-09-12T15:45:30;1.27;;;0.52;;
50543;SDS011;41176;44.032;20.900;2022-09-12T15:47:57;1.38;;;0.60;;
50543;SDS011;41176;44.032;20.900;2022-09-12T15:50:24;1.30;;;0.47;;
50543;SDS011;41176;44.032;20.900;2022-09-12T15:52:52;1.02;;;0.50;;
50543;SDS011;41176;44.032;20.900;2022-09-12T15:55:22;1.15;;;0.50;;
50543;SDS011;41176;44.032;20.900;2022-09-12T15:57:50;0.88;;;0.40;;
50543;SDS011;41176;44.032;20.900;2022-09-12T16:00:16;3.65;;;0.80;;
50543;SDS011;41176;44.032;20.900;2022-09-12T16:02:43;1.90;;;0.55;;
50543;SDS011;41176;44.032;20.900;2022-09-12T16:05:14;3.85;;;0.70;;
50543;SDS011;41176;44.032;20.900;2022-09-12T16:07:45;1.80;;;0.70;;
50543;SDS011;41176;44.032;20.900;2022-09-12T16:10:14;0.85;;;0.40;;
50543;SDS011;41176;44.032;20.900;2022-09-12T16:12:42;1.13;;;0.40;;
50543;SDS011;41176;44.032;20.900;2022-09-12T16:15:13;0.73;;;0.35;;
50543;SDS011;41176;44.032;20.900;2022-09-12T16:17:42;1.08;;;0.50;;
50543;SDS011;41176;44.032;20.900;2022-09-12T16:20:18;0.50;;;0.30;;
50543;SDS011;41176;44.032;20.900;2022-09-12T16:22:47;1.42;;;0.60;;
50543;SDS011;41176;44.032;20.900;2022-09-12T16:25:16;1.23;;;0.52;;
50543;SDS011;41176;44.032;20.900;2022-09-12T16:27:45;1.73;;;0.50;;
50543;SDS011;41176;44.032;20.900;2022-09-12T16:30:11;1.60;;;0.45;;
50543;SDS011;41176;44.032;20.900;2022-09-12T16:32:37;1.00;;;0.30;;
50543;SDS011;41176;44.032;20.900;2022-09-12T16:37:54;0.85;;;0.45;;
50543;SDS011;41176;44.032;20.900;2022-09-12T16:40:23;1.13;;;0.40;;
50543;SDS011;41176;44.032;20.900;2022-09-12T16:42:55;0.88;;;0.43;;
50543;SDS011;41176;44.032;20.900;2022-09-12T16:59:19;0.82;;;0.43;;
50543;SDS011;41176;44.032;20.900;2022-09-12T17:05:55;2.08;;;0.95;;
50543;SDS011;41176;44.032;20.900;2022-09-12T17:08:33;1.70;;;0.82;;
50543;SDS011;41176;44.032;20.900;2022-09-12T17:11:48;1.15;;;0.55;;
50543;SDS011;41176;44.032;20.900;2022-09-12T17:17:31;1.38;;;0.65;;
50543;SDS011;41176;44.032;20.900;2022-09-12T17:20:16;1.13;;;0.40;;
50543;SDS011;41176;44.032;20.900;2022-09-12T17:22:42;1.80;;;0.50;;
50543;SDS011;41176;44.032;20.900;2022-09-12T17:31:49;1.00;;;0.50;;
50543;SDS011;41176;44.032;20.900;2022-09-12T17:34:19;1.45;;;0.70;;
50543;SDS011;41176;44.032;20.900;2022-09-12T17:36:45;3.38;;;0.82;;
50543;SDS011;41176;44.032;20.900;2022-09-12T17:39:14;0.70;;;0.32;;
50543;SDS011;41176;44.032;20.900;2022-09-12T17:41:40;3.70;;;0.63;;
50543;SDS011;41176;44.032;20.900;2022-09-12T17:44:07;1.05;;;0.50;;
50543;SDS011;41176;44.032;20.900;2022-09-12T17:46:39;1.25;;;0.52;;
50543;SDS011;41176;44.032;20.900;2022-09-12T17:49:07;1.27;;;0.70;;
50543;SDS011;41176;44.032;20.900;2022-09-12T17:51:36;1.90;;;0.52;;
50543;SDS011;41176;44.032;20.900;2022-09-12T17:54:06;1.52;;;1.05;;
50543;SDS011;41176;44.032;20.900;2022-09-12T17:56:37;0.68;;;0.40;;
50543;SDS011;41176;44.032;20.900;2022-09-12T17:59:03;1.52;;;0.70;;
50543;SDS011;41176;44.032;20.900;2022-09-12T18:01:31;1.25;;;0.50;;
50543;SDS011;41176;44.032;20.900;2022-09-12T18:04:16;1.33;;;0.50;;
50543;SDS011;41176;44.032;20.900;2022-09-12T18:06:43;1.15;;;0.60;;
50543;SDS011;41176;44.032;20.900;2022-09-12T18:09:14;1.27;;;0.52;;
50543;SDS011;41176;44.032;20.900;2022-09-12T18:11:42;0.82;;;0.40;;
50543;SDS011;41176;44.032;20.900;2022-09-12T18:14:07;1.30;;;0.60;;
50543;SDS011;41176;44.032;20.900;2022-09-12T18:16:36;1.02;;;0.50;;
50543;SDS011;41176;44.032;20.900;2022-09-12T18:19:02;1.13;;;0.40;;
50543;SDS011;41176;44.032;20.900;2022-09-12T18:21:28;1.60;;;0.70;;
50543;SDS011;41176;44.032;20.900;2022-09-12T18:23:55;1.05;;;0.47;;
50543;SDS011;41176;44.032;20.900;2022-09-12T18:26:23;1.38;;;0.50;;
50543;SDS011;41176;44.032;20.900;2022-09-12T18:28:49;1.30;;;0.50;;
50543;SDS011;41176;44.032;20.900;2022-09-12T18:31:17;1.05;;;0.40;;
50543;SDS011;41176;44.032;20.900;2022-09-12T18:33:50;1.30;;;0.47;;